createdAt,value
2022-09-06T00:01:17.123Z,11.52
2022-09-06T00:03:44.790Z,13.48
2022-09-06T00:06:15.956Z,11.90
2022-09-06T00:08:44.132Z,8.98
2022-09-06T00:11:11.115Z,12.20
2022-09-06T00:13:38.571Z,11.55
2022-09-06T00:16:11.308Z,9.10
2022-09-06T00:18:38.203Z,11.98
2022-09-06T00:21:15.258Z,9.13
2022-09-06T00:23:41.939Z,7.80
2022-09-06T00:26:08.529Z,11.55
2022-09-06T00:28:34.991Z,12.20
2022-09-06T00:31:31.876Z,11.00
2022-09-06T00:33:58.450Z,10.70
2022-09-06T00:36:24.935Z,14.88
2022-09-06T00:38:51.452Z,13.38
2022-09-06T00:41:18.038Z,11.32
2022-09-06T00:43:45.189Z,11.95
2022-09-06T00:46:23.464Z,12.43
2022-09-06T00:48:56.367Z,11.20
2022-09-06T00:51:26.346Z,10.02
2022-09-06T00:53:52.948Z,11.13
2022-09-06T00:56:19.641Z,13.55
2022-09-06T00:58:48.635Z,10.50
2022-09-06T01:01:15.254Z,8.13
2022-09-06T01:03:42.742Z,11.40
2022-09-06T01:06:18.203Z,8.27
2022-09-06T01:08:50.411Z,15.38
2022-09-06T01:11:22.783Z,9.32
2022-09-06T01:14:01.428Z,12.65
2022-09-06T01:17:03.254Z,9.00
2022-09-06T01:19:52.428Z,11.50
2022-09-06T01:22:58.891Z,12.60
2022-09-06T01:25:52.900Z,12.32
2022-09-06T01:28:41.169Z,10.88
2022-09-06T01:31:44.599Z,9.70
2022-09-06T01:34:37.974Z,17.83
2022-09-06T01:37:14.401Z,8.88
2022-09-06T01:39:42.026Z,14.20
2022-09-06T01:42:27.368Z,12.45
2022-09-06T01:44:59.609Z,13.18
2022-09-06T01:47:47.975Z,12.63
2022-09-06T01:50:32.801Z,10.82
2022-09-06T01:53:04.800Z,10.53
2022-09-06T01:55:58.812Z,15.68
2022-09-06T01:58:32.140Z,15.07
2022-09-06T02:01:07.467Z,12.52
2022-09-06T02:06:24.174Z,19.92
2022-09-06T02:08:57.194Z,18.02
2022-09-06T02:11:26.931Z,10.68
2022-09-06T02:14:03.014Z,10.30
2022-09-06T02:16:32.280Z,11.75
2022-09-06T02:19:17.388Z,14.35
2022-09-06T02:21:47.365Z,17.70
2022-09-06T02:24:21.605Z,16.58
2022-09-06T02:26:49.104Z,12.35
2022-09-06T02:29:16.699Z,12.38
2022-09-06T02:31:47.706Z,13.15
2022-09-06T02:34:17.898Z,13.02
2022-09-06T02:36:45.098Z,8.50
2022-09-06T02:39:12.273Z,15.30
2022-09-06T02:41:41.025Z,15.10
2022-09-06T02:44:07.522Z,11.90
2022-09-06T02:46:34.047Z,12.50
2022-09-06T02:49:00.659Z,15.57
2022-09-06T02:51:27.243Z,9.85
2022-09-06T02:53:53.826Z,12.90
2022-09-06T02:56:20.344Z,10.93
2022-09-06T02:58:46.914Z,14.90
2022-09-06T03:01:13.432Z,15.10
2022-09-06T03:03:39.932Z,11.05
2022-09-06T03:06:06.702Z,13.10
2022-09-06T03:08:34.175Z,14.98
2022-09-06T03:11:01.207Z,22.60
2022-09-06T03:13:28.547Z,11.73
2022-09-06T03:15:57.545Z,12.27
2022-09-06T03:18:25.645Z,17.05
2022-09-06T03:20:53.793Z,12.55
2022-09-06T03:23:22.219Z,13.73
2022-09-06T03:25:48.789Z,13.85
2022-09-06T03:28:15.866Z,12.38
2022-09-06T03:30:45.218Z,16.65
2022-09-06T03:33:12.751Z,13.48
2022-09-06T03:35:39.311Z,14.57
2022-09-06T03:38:05.958Z,14.20
2022-09-06T03:40:32.498Z,13.18
2022-09-06T03:42:59.086Z,12.77
2022-09-06T03:45:25.626Z,12.48
2022-09-06T03:47:52.077Z,14.07
2022-09-06T03:50:18.547Z,15.70
2022-09-06T03:52:44.998Z,14.90
2022-09-06T03:55:11.995Z,13.02
2022-09-06T03:57:38.473Z,12.38
2022-09-06T04:00:05.502Z,20.40
2022-09-06T04:02:32.028Z,19.45
2022-09-06T04:04:58.558Z,19.05
2022-09-06T04:07:25.375Z,18.80
2022-09-06T04:09:51.809Z,22.08
2022-09-06T04:12:18.285Z,16.95
2022-09-06T04:14:44.749Z,21.33
2022-09-06T04:17:12.374Z,18.90
2022-09-06T04:19:38.826Z,19.70
2022-09-06T04:22:05.502Z,20.13
2022-09-06T04:24:31.982Z,19.52
2022-09-06T04:26:58.531Z,22.17
2022-09-06T04:29:25.036Z,20.67
2022-09-06T04:31:51.513Z,17.58
2022-09-06T04:34:19.674Z,18.20
2022-09-06T04:36:48.505Z,26.23
2022-09-06T04:39:15.502Z,23.67
2022-09-06T04:41:42.624Z,23.40
2022-09-06T04:44:09.384Z,21.58
2022-09-06T04:46:35.937Z,21.35
2022-09-06T04:49:02.430Z,21.48
2022-09-06T04:51:28.970Z,22.60
2022-09-06T04:53:55.508Z,21.25
2022-09-06T04:56:25.181Z,17.45
2022-09-06T04:58:53.874Z,25.95
2022-09-06T05:01:20.935Z,27.02
2022-09-06T05:03:47.790Z,21.38
2022-09-06T05:06:20.773Z,20.77
2022-09-06T05:08:47.415Z,22.88
2022-09-06T05:11:13.921Z,22.25
2022-09-06T05:13:41.095Z,22.73
2022-09-06T05:16:08.821Z,20.80
2022-09-06T05:18:36.010Z,23.70
2022-09-06T05:21:02.628Z,20.20
2022-09-06T05:23:29.365Z,21.25
2022-09-06T05:25:55.923Z,18.73
2022-09-06T05:28:23.075Z,22.30
2022-09-06T05:30:49.556Z,21.30
2022-09-06T05:33:21.844Z,21.80
2022-09-06T05:35:48.946Z,21.10
2022-09-06T05:38:15.683Z,19.40
2022-09-06T05:40:42.229Z,20.13
2022-09-06T05:43:08.714Z,18.00
2022-09-06T05:45:35.262Z,21.70
2022-09-06T05:48:01.958Z,18.23
2022-09-06T05:50:28.431Z,20.88
2022-09-06T05:52:54.901Z,18.15
2022-09-06T05:55:21.364Z,22.08
2022-09-06T05:57:47.879Z,23.00
2022-09-06T06:00:14.670Z,16.05
2022-09-06T06:02:41.245Z,21.27
2022-09-06T06:05:08.358Z,19.25
2022-09-06T06:07:34.908Z,18.80
2022-09-06T06:10:01.458Z,18.83
2022-09-06T06:12:27.975Z,17.70
2022-09-06T06:14:54.426Z,25.27
2022-09-06T06:17:20.900Z,19.35
2022-09-06T06:19:47.546Z,18.02
2022-09-06T06:22:14.037Z,17.15
2022-09-06T06:24:40.489Z,17.00
2022-09-06T06:27:06.955Z,17.75
2022-09-06T06:29:33.528Z,19.40
2022-09-06T06:32:00.041Z,18.33
2022-09-06T06:34:26.629Z,20.42
2022-09-06T06:36:53.058Z,16.15
2022-09-06T06:39:19.611Z,22.23
2022-09-06T06:41:46.244Z,21.23
2022-09-06T06:44:12.736Z,22.60
2022-09-06T06:46:39.375Z,21.98
2022-09-06T06:49:06.245Z,20.08
2022-09-06T06:51:37.059Z,19.67
2022-09-06T06:54:04.685Z,18.50
2022-09-06T06:56:32.654Z,22.20
2022-09-06T06:59:01.432Z,18.02
2022-09-06T07:01:30.010Z,21.23
2022-09-06T07:03:58.337Z,17.65
2022-09-06T07:09:15.228Z,18.42
2022-09-06T07:11:42.099Z,20.70
2022-09-06T07:14:08.902Z,21.08
2022-09-06T07:16:35.405Z,26.30
2022-09-06T07:19:02.192Z,19.67
2022-09-06T07:24:05.836Z,22.73
2022-09-06T07:26:33.711Z,19.80
2022-09-06T07:29:01.785Z,21.02
2022-09-06T07:34:17.614Z,19.30
2022-09-06T07:36:44.148Z,25.17
2022-09-06T07:39:10.700Z,17.38
2022-09-06T07:41:37.216Z,19.38
2022-09-06T07:44:03.668Z,19.55
2022-09-06T07:46:30.218Z,19.05
2022-09-06T07:48:56.777Z,18.10
2022-09-06T07:51:23.399Z,16.73
2022-09-06T07:53:57.863Z,13.10
2022-09-06T07:56:33.974Z,8.32
2022-09-06T07:59:00.453Z,10.98
2022-09-06T08:01:35.370Z,6.38
2022-09-06T08:04:05.993Z,5.07
2022-09-06T08:09:22.821Z,10.45
2022-09-06T08:11:51.021Z,5.43
2022-09-06T08:14:17.554Z,4.13
2022-09-06T08:16:44.138Z,7.40
2022-09-06T08:19:12.310Z,8.07
2022-09-06T08:21:39.160Z,8.77
2022-09-06T08:24:07.954Z,9.07
2022-09-06T08:26:36.418Z,5.88
2022-09-06T08:29:06.822Z,6.88
2022-09-06T08:31:35.574Z,8.27
2022-09-06T08:34:03.563Z,5.47
2022-09-06T08:36:30.783Z,5.35
2022-09-06T08:39:05.364Z,2.92
2022-09-06T08:41:50.092Z,5.30
2022-09-06T08:47:21.128Z,6.78
2022-09-06T08:49:50.759Z,8.70
2022-09-06T08:52:20.009Z,4.13
2022-09-06T08:55:09.976Z,3.65
2022-09-06T08:57:57.972Z,4.05
2022-09-06T09:00:24.703Z,3.10
2022-09-06T09:03:06.747Z,4.82
2022-09-06T09:05:36.201Z,5.18
2022-09-06T09:08:24.092Z,6.28
2022-09-06T09:11:03.692Z,4.38
2022-09-06T09:13:36.234Z,4.70
2022-09-06T09:16:02.813Z,8.60
2022-09-06T09:18:34.067Z,4.00
2022-09-06T09:21:00.664Z,6.18
2022-09-06T09:23:29.577Z,4.63
2022-09-06T09:26:00.965Z,4.95
2022-09-06T09:28:27.561Z,3.90
2022-09-06T09:30:56.847Z,7.53
2022-09-06T09:33:35.475Z,5.32
2022-09-06T09:36:07.355Z,4.97
2022-09-06T09:38:42.806Z,4.15
2022-09-06T09:41:23.828Z,6.05
2022-09-06T09:44:02.260Z,5.13
2022-09-06T09:46:33.174Z,4.03
2022-09-06T09:49:10.326Z,4.55
2022-09-06T09:51:39.743Z,3.58
2022-09-06T09:54:12.580Z,3.50
2022-09-06T09:56:43.422Z,3.15
2022-09-06T09:59:20.612Z,1.50
2022-09-06T10:01:47.881Z,2.38
2022-09-06T10:07:18.022Z,2.03
2022-09-06T10:10:00.627Z,5.78
2022-09-06T10:12:30.122Z,1.63
2022-09-06T10:14:57.237Z,2.95
2022-09-06T10:17:38.046Z,3.95
2022-09-06T10:20:13.893Z,3.20
2022-09-06T10:22:49.454Z,3.22
2022-09-06T10:25:34.318Z,5.78
2022-09-06T10:28:28.112Z,2.13
2022-09-06T10:30:57.697Z,7.10
2022-09-06T10:34:06.010Z,4.63
2022-09-06T10:36:44.984Z,5.55
2022-09-06T10:39:23.837Z,7.88
2022-09-06T10:42:04.921Z,5.55
2022-09-06T10:45:08.108Z,3.85
2022-09-06T10:47:55.184Z,4.20
2022-09-06T10:50:25.888Z,6.55
2022-09-06T10:52:53.844Z,6.57
2022-09-06T10:55:21.058Z,3.00
2022-09-06T10:58:20.679Z,3.63
2022-09-06T11:00:49.693Z,2.10
2022-09-06T11:06:26.705Z,3.88
2022-09-06T11:08:58.525Z,4.38
2022-09-06T11:11:47.549Z,3.05
2022-09-06T11:14:15.583Z,3.92
2022-09-06T11:16:51.915Z,4.07
2022-09-06T11:19:27.536Z,6.80
2022-09-06T11:22:07.550Z,3.85
2022-09-06T11:24:55.763Z,2.97
2022-09-06T11:27:32.127Z,3.13
2022-09-06T11:30:01.311Z,7.05
2022-09-06T11:32:30.480Z,4.38
2022-09-06T11:35:01.173Z,4.78
2022-09-06T11:37:39.558Z,5.40
2022-09-06T11:42:55.406Z,12.98
2022-09-06T11:45:38.936Z,5.03
2022-09-06T11:48:23.953Z,3.03
2022-09-06T11:50:53.370Z,6.35
2022-09-06T11:53:21.684Z,6.78
2022-09-06T11:55:51.302Z,2.40
2022-09-06T11:58:17.779Z,2.75
2022-09-06T12:00:46.320Z,2.58
2022-09-06T12:06:32.478Z,3.60
2022-09-06T12:08:59.970Z,4.30
2022-09-06T12:11:41.711Z,2.58
2022-09-06T12:14:32.473Z,4.35
2022-09-06T12:16:59.074Z,5.03
2022-09-06T12:19:45.124Z,4.05
2022-09-06T12:22:47.662Z,0.90
2022-09-06T12:25:37.078Z,8.32
2022-09-06T12:28:20.132Z,6.68
2022-09-06T12:30:48.084Z,8.23
2022-09-06T12:33:23.767Z,7.72
2022-09-06T12:35:58.621Z,3.35
2022-09-06T12:38:25.990Z,3.40
2022-09-06T12:43:42.341Z,6.68
2022-09-06T12:46:08.919Z,2.78
2022-09-06T12:48:41.119Z,7.30
2022-09-06T12:51:20.050Z,10.43
2022-09-06T12:53:54.451Z,8.20
2022-09-06T12:56:23.091Z,3.47
2022-09-06T12:58:49.849Z,7.70
2022-09-06T13:01:25.839Z,4.15
2022-09-06T13:03:58.433Z,7.53
2022-09-06T13:06:27.373Z,7.30
2022-09-06T13:08:57.153Z,8.35
2022-09-06T13:11:28.189Z,5.85
2022-09-06T13:13:55.346Z,3.85
2022-09-06T13:16:25.009Z,4.18
2022-09-06T13:18:51.804Z,4.07
2022-09-06T13:21:35.134Z,5.88
2022-09-06T13:24:37.687Z,3.05
2022-09-06T13:27:45.957Z,4.38
2022-09-06T13:30:33.855Z,7.13
2022-09-06T13:33:01.194Z,3.95
2022-09-06T13:35:34.351Z,4.88
2022-09-06T13:38:20.938Z,8.75
2022-09-06T13:43:45.126Z,4.70
2022-09-06T13:46:12.025Z,4.97
2022-09-06T13:48:43.003Z,9.52
2022-09-06T13:51:10.045Z,3.45
2022-09-06T13:53:36.587Z,6.28
2022-09-06T13:56:03.709Z,7.18
2022-09-06T13:58:30.375Z,1.90
2022-09-06T14:00:57.069Z,6.85
2022-09-06T14:03:31.780Z,8.45
2022-09-06T14:06:00.253Z,7.93
2022-09-06T14:08:43.665Z,5.88
2022-09-06T14:11:17.646Z,10.40
2022-09-06T14:13:44.380Z,9.00
2022-09-06T14:16:11.911Z,10.55
2022-09-06T14:18:38.666Z,9.02
2022-09-06T14:21:05.437Z,10.20
2022-09-06T14:23:31.979Z,5.75
2022-09-06T14:26:00.204Z,6.72
2022-09-06T14:28:27.529Z,10.60
2022-09-06T14:30:55.013Z,7.57
2022-09-06T14:33:21.588Z,6.57
2022-09-06T14:35:48.885Z,12.70
2022-09-06T14:38:15.768Z,4.20
2022-09-06T14:40:45.370Z,5.80
2022-09-06T14:43:11.970Z,6.30
2022-09-06T14:45:38.552Z,5.10
2022-09-06T14:48:05.668Z,4.57
2022-09-06T14:50:32.515Z,6.65
2022-09-06T14:52:59.195Z,11.27
2022-09-06T14:55:28.047Z,5.55
2022-09-06T14:57:54.678Z,4.45
2022-09-06T15:00:21.355Z,11.90
2022-09-06T15:02:47.886Z,4.20
2022-09-06T15:05:14.520Z,6.97
2022-09-06T15:07:41.016Z,5.80
2022-09-06T15:10:07.846Z,6.18
2022-09-06T15:12:34.348Z,5.63
2022-09-06T15:15:00.929Z,8.20
2022-09-06T15:17:27.416Z,5.22
2022-09-06T15:19:54.312Z,6.60
2022-09-06T15:22:20.890Z,10.52
2022-09-06T15:24:47.454Z,4.82
2022-09-06T15:27:13.991Z,14.18
2022-09-06T15:29:41.157Z,9.13
2022-09-06T15:32:07.660Z,7.40
2022-09-06T15:34:35.179Z,6.85
2022-09-06T15:37:01.712Z,10.45
2022-09-06T15:39:28.310Z,13.00
2022-09-06T15:41:54.872Z,5.63
2022-09-06T15:44:21.686Z,6.80
2022-09-06T15:46:59.497Z,4.60
2022-09-06T15:49:34.627Z,5.20
2022-09-06T15:52:02.665Z,6.57
2022-09-06T15:54:48.587Z,6.32
2022-09-06T15:57:16.562Z,5.45
2022-09-06T15:59:43.698Z,3.78
2022-09-06T16:02:10.701Z,8.63
2022-09-06T16:04:37.420Z,10.60
2022-09-06T16:07:04.169Z,4.78
2022-09-06T16:09:31.770Z,4.38
2022-09-06T16:11:58.428Z,7.57
2022-09-06T16:14:25.251Z,7.32
2022-09-06T16:16:55.032Z,5.53
2022-09-06T16:19:21.714Z,7.93
2022-09-06T16:21:48.285Z,6.68
2022-09-06T16:24:15.295Z,3.63
2022-09-06T16:26:43.683Z,4.57
2022-09-06T16:29:12.009Z,6.75
2022-09-06T16:31:40.636Z,5.45
2022-09-06T16:34:08.908Z,12.15
2022-09-06T16:36:36.303Z,9.23
2022-09-06T16:39:04.133Z,5.15
2022-09-06T16:41:49.445Z,7.32
2022-09-06T16:44:18.183Z,5.03
2022-09-06T16:46:47.083Z,3.63
2022-09-06T16:49:16.403Z,6.10
2022-09-06T16:51:43.643Z,9.10
2022-09-06T16:54:10.252Z,5.55
2022-09-06T16:56:36.989Z,5.85
2022-09-06T16:59:06.323Z,7.32
2022-09-06T17:01:34.252Z,4.05
2022-09-06T17:04:04.466Z,4.20
2022-09-06T17:06:33.131Z,7.25
2022-09-06T17:09:00.020Z,6.75
2022-09-06T17:11:27.966Z,4.88
2022-09-06T17:13:55.583Z,7.43
2022-09-06T17:16:41.099Z,4.88
2022-09-06T17:19:08.105Z,6.00
2022-09-06T17:21:35.514Z,9.07
2022-09-06T17:24:04.537Z,4.65
2022-09-06T17:26:33.099Z,5.97
2022-09-06T17:28:59.667Z,4.53
2022-09-06T17:31:26.469Z,6.22
2022-09-06T17:33:53.417Z,3.70
2022-09-06T17:36:25.053Z,7.75
2022-09-06T17:38:53.557Z,5.38
2022-09-06T17:41:27.403Z,6.38
2022-09-06T17:43:54.892Z,7.00
2022-09-06T17:46:27.868Z,6.22
2022-09-06T17:48:55.299Z,8.32
2022-09-06T17:51:21.850Z,5.70
2022-09-06T17:53:48.508Z,6.75
2022-09-06T17:56:16.739Z,3.97
2022-09-06T17:58:44.556Z,6.53
2022-09-06T18:01:14.734Z,7.00
2022-09-06T18:03:42.327Z,6.30
2022-09-06T18:06:19.904Z,3.83
2022-09-06T18:08:47.869Z,7.32
2022-09-06T18:11:18.003Z,9.63
2022-09-06T18:13:45.585Z,8.70
2022-09-06T18:16:14.094Z,4.65
2022-09-06T18:18:41.644Z,7.03
2022-09-06T18:21:08.256Z,5.47
2022-09-06T18:23:35.505Z,7.72
2022-09-06T18:26:05.670Z,4.00
2022-09-06T18:28:34.584Z,8.18
2022-09-06T18:31:07.980Z,4.05
2022-09-06T18:33:35.240Z,5.60
2022-09-06T18:36:02.177Z,9.55
2022-09-06T18:38:28.886Z,5.75
2022-09-06T18:40:57.685Z,8.38
2022-09-06T18:43:28.339Z,6.88
2022-09-06T18:46:10.536Z,6.15
2022-09-06T18:48:37.676Z,7.05
2022-09-06T18:51:12.942Z,7.00
2022-09-06T18:53:44.753Z,8.85
2022-09-06T18:56:13.680Z,8.75
2022-09-06T18:58:40.875Z,5.60
2022-09-06T19:01:13.564Z,10.45
2022-09-06T19:03:41.240Z,7.75
2022-09-06T19:06:15.139Z,7.78
2022-09-06T19:08:42.073Z,8.10
2022-09-06T19:11:11.695Z,8.43
2022-09-06T19:13:40.386Z,10.70
2022-09-06T19:16:08.350Z,6.05
2022-09-06T19:18:35.530Z,8.40
2022-09-06T19:21:05.208Z,7.75
2022-09-06T19:23:33.548Z,7.93
2022-09-06T19:26:07.581Z,8.80
2022-09-06T19:28:35.700Z,6.65
2022-09-06T19:31:13.472Z,5.90
2022-09-06T19:33:41.573Z,4.88
2022-09-06T19:36:11.876Z,8.30
2022-09-06T19:39:02.157Z,7.45
2022-09-06T19:41:28.341Z,7.97
2022-09-06T19:43:57.072Z,4.45
2022-09-06T19:46:24.169Z,6.43
2022-09-06T19:48:52.524Z,4.25
2022-09-06T19:51:19.875Z,8.70
2022-09-06T19:53:53.043Z,6.07
2022-09-06T19:56:25.217Z,8.90
2022-09-06T19:58:57.175Z,5.88
2022-09-06T20:01:25.966Z,7.80
2022-09-06T20:03:53.004Z,4.18
2022-09-06T20:06:19.648Z,7.88
2022-09-06T20:08:50.501Z,10.10
2022-09-06T20:11:18.007Z,9.75
2022-09-06T20:13:45.079Z,4.18
2022-09-06T20:16:12.900Z,8.85
2022-09-06T20:18:40.180Z,7.32
2022-09-06T20:21:07.216Z,5.75
2022-09-06T20:23:34.759Z,7.00
2022-09-06T20:26:05.812Z,7.03
2022-09-06T20:28:33.011Z,6.68
2022-09-06T20:31:16.332Z,6.57
2022-09-06T20:33:48.505Z,7.38
2022-09-06T20:36:16.209Z,8.38
2022-09-06T20:38:43.985Z,9.68
2022-09-06T20:41:11.780Z,6.85
2022-09-06T20:43:39.722Z,8.45
2022-09-06T20:46:12.725Z,9.80
2022-09-06T20:48:44.186Z,9.63
2022-09-06T20:51:19.762Z,12.00
2022-09-06T20:56:16.663Z,11.93
2022-09-06T20:58:51.002Z,7.43
2022-09-06T21:01:22.456Z,18.87
2022-09-06T21:03:54.542Z,9.57
2022-09-06T21:06:22.446Z,6.82
2022-09-06T21:08:49.797Z,10.25
2022-09-06T21:11:16.819Z,12.52
2022-09-06T21:13:43.821Z,14.63
2022-09-06T21:16:10.364Z,9.30
2022-09-06T21:18:37.336Z,13.95
2022-09-06T21:21:06.751Z,7.75
2022-09-06T21:23:36.071Z,7.25
2022-09-06T21:26:05.291Z,7.50
2022-09-06T21:28:34.148Z,8.73
2022-09-06T21:31:03.685Z,6.10
2022-09-06T21:33:32.325Z,6.35
2022-09-06T21:36:06.821Z,7.68
2022-09-06T21:38:34.798Z,9.52
2022-09-06T21:41:01.945Z,8.48
2022-09-06T21:43:28.525Z,9.73
2022-09-06T21:45:55.158Z,10.18
2022-09-06T21:48:21.710Z,9.30
2022-09-06T21:50:48.377Z,9.85
2022-09-06T21:53:15.527Z,6.30
2022-09-06T21:55:42.309Z,9.40
2022-09-06T21:58:08.864Z,9.82
2022-09-06T22:00:35.653Z,9.13
2022-09-06T22:03:02.566Z,10.10
2022-09-06T22:05:29.125Z,10.07
2022-09-06T22:07:55.639Z,9.65
2022-09-06T22:10:23.802Z,8.63
2022-09-06T22:12:50.668Z,8.48
2022-09-06T22:15:18.962Z,9.32
2022-09-06T22:17:45.458Z,8.60
2022-09-06T22:20:12.209Z,8.40
2022-09-06T22:22:38.805Z,13.80
2022-09-06T22:25:05.882Z,7.32
2022-09-06T22:27:32.447Z,8.00
2022-09-06T22:29:58.936Z,6.45
2022-09-06T22:32:25.706Z,3.92
2022-09-06T22:34:52.271Z,7.68
2022-09-06T22:37:18.816Z,5.72
2022-09-06T22:39:45.351Z,3.08
2022-09-06T22:42:11.858Z,5.90
2022-09-06T22:44:38.847Z,5.78
2022-09-06T22:47:05.412Z,6.82
2022-09-06T22:49:31.942Z,8.45
2022-09-06T22:51:58.499Z,8.43
2022-09-06T22:54:25.073Z,4.72
2022-09-06T22:56:51.616Z,6.32
2022-09-06T22:59:18.215Z,3.55
2022-09-06T23:01:44.802Z,4.65
2022-09-06T23:04:11.429Z,9.35
2022-09-06T23:06:37.959Z,9.20
2022-09-06T23:09:05.845Z,4.32
2022-09-06T23:11:32.718Z,9.02
2022-09-06T23:14:00.597Z,6.47
2022-09-06T23:16:28.147Z,4.70
2022-09-06T23:18:55.488Z,4.45
2022-09-06T23:21:24.301Z,4.15
2022-09-06T23:23:52.895Z,7.68
2022-09-06T23:26:25.562Z,7.00
2022-09-06T23:28:56.511Z,8.13
2022-09-06T23:31:25.499Z,5.00
2022-09-06T23:33:57.194Z,3.22
2022-09-06T23:36:24.592Z,5.57
2022-09-06T23:38:51.473Z,8.10
2022-09-06T23:41:18.487Z,9.25
2022-09-06T23:43:45.059Z,5.93
2022-09-06T23:46:13.291Z,5.93
2022-09-06T23:48:40.134Z,7.00
2022-09-06T23:51:07.044Z,5.15
2022-09-06T23:53:33.603Z,3.72
2022-09-06T23:56:00.504Z,5.25
2022-09-06T23:58:27.446Z,20.77
